sensor_id;sensor_type;location;lat;lon;timestamp;P1;durP1;ratioP1;P2;durP2;ratioP2
37903;SDS011;23738;50.422;18.758;2023-02-28T00:00:33;120.40;;;33.20;;
37903;SDS011;23738;50.422;18.758;2023-02-28T00:03:02;140.70;;;38.40;;
37903;SDS011;23738;50.422;18.758;2023-02-28T00:05:30;67.70;;;20.20;;
37903;SDS011;23738;50.422;18.758;2023-02-28T00:07:58;51.80;;;15.70;;
37903;SDS011;23738;50.422;18.758;2023-02-28T00:10:28;34.20;;;13.80;;
37903;SDS011;23738;50.422;18.758;2023-02-28T00:12:59;32.60;;;11.80;;
37903;SDS011;23738;50.422;18.758;2023-02-28T00:15:29;22.90;;;9.90;;
37903;SDS011;23738;50.422;18.758;2023-02-28T00:17:56;25.60;;;11.40;;
37903;SDS011;23738;50.422;18.758;2023-02-28T00:20:24;28.30;;;10.90;;
37903;SDS011;23738;50.422;18.758;2023-02-28T00:22:52;29.60;;;12.00;;
37903;SDS011;23738;50.422;18.758;2023-02-28T00:25:22;27.70;;;11.50;;
37903;SDS011;23738;50.422;18.758;2023-02-28T00:27:52;26.80;;;10.00;;
37903;SDS011;23738;50.422;18.758;2023-02-28T00:30:20;26.90;;;10.70;;
37903;SDS011;23738;50.422;18.758;2023-02-28T00:32:50;23.00;;;10.50;;
37903;SDS011;23738;50.422;18.758;2023-02-28T00:35:18;19.20;;;9.40;;
37903;SDS011;23738;50.422;18.758;2023-02-28T00:37:45;26.80;;;11.40;;
37903;SDS011;23738;50.422;18.758;2023-02-28T00:42:43;17.30;;;8.50;;
37903;SDS011;23738;50.422;18.758;2023-02-28T00:45:10;17.70;;;9.10;;
37903;SDS011;23738;50.422;18.758;2023-02-28T00:47:38;17.80;;;8.70;;
37903;SDS011;23738;50.422;18.758;2023-02-28T00:50:07;20.70;;;9.20;;
37903;SDS011;23738;50.422;18.758;2023-02-28T00:52:36;18.30;;;9.20;;
37903;SDS011;23738;50.422;18.758;2023-02-28T00:55:04;17.70;;;8.60;;
37903;SDS011;23738;50.422;18.758;2023-02-28T00:57:33;23.60;;;9.70;;
37903;SDS011;23738;50.422;18.758;2023-02-28T01:00:00;22.30;;;9.90;;
37903;SDS011;23738;50.422;18.758;2023-02-28T01:02:29;25.20;;;10.20;;
37903;SDS011;23738;50.422;18.758;2023-02-28T01:04:57;15.20;;;8.10;;
37903;SDS011;23738;50.422;18.758;2023-02-28T01:07:25;15.70;;;7.20;;
37903;SDS011;23738;50.422;18.758;2023-02-28T01:09:53;18.20;;;8.30;;
37903;SDS011;23738;50.422;18.758;2023-02-28T01:12:20;15.40;;;7.90;;
37903;SDS011;23738;50.422;18.758;2023-02-28T01:14:48;17.00;;;7.50;;
37903;SDS011;23738;50.422;18.758;2023-02-28T01:17:16;13.50;;;7.30;;
37903;SDS011;23738;50.422;18.758;2023-02-28T01:19:43;14.70;;;7.60;;
37903;SDS011;23738;50.422;18.758;2023-02-28T01:22:11;19.90;;;9.00;;
37903;SDS011;23738;50.422;18.758;2023-02-28T01:24:39;21.50;;;9.60;;
37903;SDS011;23738;50.422;18.758;2023-02-28T01:27:07;25.30;;;9.60;;
37903;SDS011;23738;50.422;18.758;2023-02-28T01:29:34;22.70;;;10.90;;
37903;SDS011;23738;50.422;18.758;2023-02-28T01:32:02;26.90;;;11.90;;
37903;SDS011;23738;50.422;18.758;2023-02-28T01:34:30;18.30;;;9.10;;
37903;SDS011;23738;50.422;18.758;2023-02-28T01:36:58;26.00;;;9.90;;
37903;SDS011;23738;50.422;18.758;2023-02-28T01:39:25;19.50;;;8.90;;
37903;SDS011;23738;50.422;18.758;2023-02-28T01:41:53;24.90;;;10.20;;
37903;SDS011;23738;50.422;18.758;2023-02-28T01:47:34;22.70;;;10.80;;
37903;SDS011;23738;50.422;18.758;2023-02-28T01:50:09;22.60;;;9.60;;
37903;SDS011;23738;50.422;18.758;2023-02-28T01:52:41;21.80;;;10.20;;
37903;SDS011;23738;50.422;18.758;2023-02-28T01:55:11;22.90;;;10.40;;
37903;SDS011;23738;50.422;18.758;2023-02-28T01:57:40;24.20;;;9.90;;
37903;SDS011;23738;50.422;18.758;2023-02-28T02:03:14;20.30;;;9.00;;
37903;SDS011;23738;50.422;18.758;2023-02-28T02:05:45;18.30;;;8.70;;
37903;SDS011;23738;50.422;18.758;2023-02-28T02:08:15;19.90;;;9.30;;
37903;SDS011;23738;50.422;18.758;2023-02-28T02:10:46;19.00;;;8.60;;
37903;SDS011;23738;50.422;18.758;2023-02-28T02:13:27;15.00;;;7.20;;
37903;SDS011;23738;50.422;18.758;2023-02-28T02:16:07;16.40;;;7.90;;
37903;SDS011;23738;50.422;18.758;2023-02-28T02:18:47;16.70;;;8.00;;
37903;SDS011;23738;50.422;18.758;2023-02-28T02:27:13;15.90;;;8.00;;
37903;SDS011;23738;50.422;18.758;2023-02-28T02:36:09;14.90;;;8.60;;
37903;SDS011;23738;50.422;18.758;2023-02-28T02:38:46;17.20;;;8.30;;
37903;SDS011;23738;50.422;18.758;2023-02-28T02:41:18;15.40;;;7.90;;
37903;SDS011;23738;50.422;18.758;2023-02-28T02:43:52;12.80;;;7.70;;
37903;SDS011;23738;50.422;18.758;2023-02-28T02:46:24;17.90;;;7.70;;
37903;SDS011;23738;50.422;18.758;2023-02-28T02:48:55;17.60;;;7.70;;
37903;SDS011;23738;50.422;18.758;2023-02-28T02:51:26;14.20;;;7.70;;
37903;SDS011;23738;50.422;18.758;2023-02-28T02:53:59;15.30;;;8.00;;
37903;SDS011;23738;50.422;18.758;2023-02-28T02:56:48;13.40;;;7.60;;
37903;SDS011;23738;50.422;18.758;2023-02-28T02:59:38;13.80;;;7.60;;
37903;SDS011;23738;50.422;18.758;2023-02-28T03:02:10;11.90;;;7.40;;
37903;SDS011;23738;50.422;18.758;2023-02-28T03:04:42;12.50;;;7.00;;
37903;SDS011;23738;50.422;18.758;2023-02-28T03:07:13;10.60;;;7.00;;
37903;SDS011;23738;50.422;18.758;2023-02-28T03:09:49;13.20;;;7.80;;
37903;SDS011;23738;50.422;18.758;2023-02-28T03:12:18;14.50;;;7.40;;
37903;SDS011;23738;50.422;18.758;2023-02-28T03:15:10;12.00;;;6.50;;
37903;SDS011;23738;50.422;18.758;2023-02-28T03:17:56;15.60;;;7.90;;
37903;SDS011;23738;50.422;18.758;2023-02-28T03:20:34;15.30;;;7.70;;
37903;SDS011;23738;50.422;18.758;2023-02-28T03:23:12;15.40;;;7.20;;
37903;SDS011;23738;50.422;18.758;2023-02-28T03:25:50;12.70;;;7.30;;
37903;SDS011;23738;50.422;18.758;2023-02-28T03:28:23;15.50;;;7.20;;
37903;SDS011;23738;50.422;18.758;2023-02-28T03:30:59;12.90;;;7.50;;
37903;SDS011;23738;50.422;18.758;2023-02-28T03:33:36;14.60;;;7.60;;
37903;SDS011;23738;50.422;18.758;2023-02-28T03:36:09;16.00;;;8.50;;
37903;SDS011;23738;50.422;18.758;2023-02-28T03:38:40;14.90;;;8.00;;
37903;SDS011;23738;50.422;18.758;2023-02-28T03:41:13;16.40;;;7.60;;
37903;SDS011;23738;50.422;18.758;2023-02-28T03:44:53;13.20;;;7.70;;
37903;SDS011;23738;50.422;18.758;2023-02-28T03:47:24;18.80;;;7.70;;
37903;SDS011;23738;50.422;18.758;2023-02-28T03:49:56;16.70;;;7.90;;
37903;SDS011;23738;50.422;18.758;2023-02-28T03:52:28;16.10;;;7.90;;
37903;SDS011;23738;50.422;18.758;2023-02-28T03:55:00;14.90;;;7.60;;
37903;SDS011;23738;50.422;18.758;2023-02-28T03:57:33;21.40;;;7.50;;
37903;SDS011;23738;50.422;18.758;2023-02-28T04:00:27;14.00;;;7.50;;
37903;SDS011;23738;50.422;18.758;2023-02-28T04:02:58;12.10;;;6.40;;
37903;SDS011;23738;50.422;18.758;2023-02-28T04:06:26;14.70;;;5.50;;
37903;SDS011;23738;50.422;18.758;2023-02-28T04:09:54;16.50;;;6.70;;
37903;SDS011;23738;50.422;18.758;2023-02-28T04:15:28;12.10;;;7.00;;
37903;SDS011;23738;50.422;18.758;2023-02-28T04:18:55;13.90;;;6.70;;
37903;SDS011;23738;50.422;18.758;2023-02-28T04:21:28;14.00;;;7.00;;
37903;SDS011;23738;50.422;18.758;2023-02-28T04:23:55;14.40;;;6.90;;
37903;SDS011;23738;50.422;18.758;2023-02-28T04:26:28;18.90;;;6.80;;
37903;SDS011;23738;50.422;18.758;2023-02-28T04:28:57;17.10;;;7.80;;
37903;SDS011;23738;50.422;18.758;2023-02-28T04:32:30;12.40;;;6.70;;
37903;SDS011;23738;50.422;18.758;2023-02-28T04:36:00;15.50;;;6.80;;
37903;SDS011;23738;50.422;18.758;2023-02-28T04:39:27;14.40;;;7.20;;
37903;SDS011;23738;50.422;18.758;2023-02-28T04:41:55;15.80;;;7.10;;
37903;SDS011;23738;50.422;18.758;2023-02-28T04:44:23;15.20;;;7.90;;
37903;SDS011;23738;50.422;18.758;2023-02-28T04:46:51;15.30;;;7.60;;
37903;SDS011;23738;50.422;18.758;2023-02-28T04:49:18;14.00;;;7.90;;
37903;SDS011;23738;50.422;18.758;2023-02-28T04:51:46;17.70;;;8.00;;
37903;SDS011;23738;50.422;18.758;2023-02-28T04:54:16;15.10;;;7.10;;
37903;SDS011;23738;50.422;18.758;2023-02-28T04:56:44;18.00;;;8.30;;
37903;SDS011;23738;50.422;18.758;2023-02-28T04:59:11;19.50;;;8.30;;
37903;SDS011;23738;50.422;18.758;2023-02-28T05:01:39;13.40;;;8.10;;
37903;SDS011;23738;50.422;18.758;2023-02-28T05:04:08;15.40;;;8.40;;
37903;SDS011;23738;50.422;18.758;2023-02-28T05:06:36;14.30;;;7.80;;
37903;SDS011;23738;50.422;18.758;2023-02-28T05:09:03;19.60;;;9.10;;
37903;SDS011;23738;50.422;18.758;2023-02-28T05:11:51;19.00;;;8.80;;
37903;SDS011;23738;50.422;18.758;2023-02-28T05:14:18;15.00;;;8.00;;
37903;SDS011;23738;50.422;18.758;2023-02-28T05:16:46;18.70;;;7.70;;
37903;SDS011;23738;50.422;18.758;2023-02-28T05:19:13;21.30;;;8.70;;
37903;SDS011;23738;50.422;18.758;2023-02-28T05:21:41;14.00;;;8.10;;
37903;SDS011;23738;50.422;18.758;2023-02-28T05:24:17;14.70;;;7.60;;
37903;SDS011;23738;50.422;18.758;2023-02-28T05:26:49;21.30;;;9.30;;
37903;SDS011;23738;50.422;18.758;2023-02-28T05:29:17;21.70;;;9.60;;
37903;SDS011;23738;50.422;18.758;2023-02-28T05:31:47;22.80;;;9.80;;
37903;SDS011;23738;50.422;18.758;2023-02-28T05:34:14;19.00;;;8.90;;
37903;SDS011;23738;50.422;18.758;2023-02-28T05:36:42;24.20;;;9.20;;
37903;SDS011;23738;50.422;18.758;2023-02-28T05:39:17;17.80;;;7.00;;
37903;SDS011;23738;50.422;18.758;2023-02-28T05:41:45;16.00;;;9.90;;
37903;SDS011;23738;50.422;18.758;2023-02-28T05:44:12;19.20;;;10.00;;
37903;SDS011;23738;50.422;18.758;2023-02-28T05:46:41;24.20;;;10.30;;
37903;SDS011;23738;50.422;18.758;2023-02-28T05:49:09;21.80;;;10.70;;
37903;SDS011;23738;50.422;18.758;2023-02-28T05:51:37;33.50;;;11.90;;
37903;SDS011;23738;50.422;18.758;2023-02-28T05:54:05;29.90;;;13.60;;
37903;SDS011;23738;50.422;18.758;2023-02-28T05:56:34;28.90;;;14.30;;
37903;SDS011;23738;50.422;18.758;2023-02-28T05:59:03;33.80;;;14.20;;
37903;SDS011;23738;50.422;18.758;2023-02-28T06:01:32;35.60;;;15.20;;
37903;SDS011;23738;50.422;18.758;2023-02-28T06:04:16;36.00;;;15.70;;
37903;SDS011;23738;50.422;18.758;2023-02-28T06:06:45;42.80;;;16.70;;
37903;SDS011;23738;50.422;18.758;2023-02-28T06:09:20;30.50;;;12.30;;
37903;SDS011;23738;50.422;18.758;2023-02-28T06:11:47;38.90;;;16.00;;
37903;SDS011;23738;50.422;18.758;2023-02-28T06:14:36;39.40;;;15.60;;
37903;SDS011;23738;50.422;18.758;2023-02-28T06:17:19;39.90;;;15.10;;
37903;SDS011;23738;50.422;18.758;2023-02-28T06:19:50;41.60;;;14.10;;
37903;SDS011;23738;50.422;18.758;2023-02-28T06:22:18;42.90;;;15.30;;
37903;SDS011;23738;50.422;18.758;2023-02-28T06:24:45;33.50;;;14.40;;
37903;SDS011;23738;50.422;18.758;2023-02-28T06:27:13;41.70;;;16.00;;
37903;SDS011;23738;50.422;18.758;2023-02-28T06:29:40;33.50;;;13.30;;
37903;SDS011;23738;50.422;18.758;2023-02-28T06:32:08;26.70;;;11.50;;
37903;SDS011;23738;50.422;18.758;2023-02-28T06:34:36;42.80;;;14.20;;
37903;SDS011;23738;50.422;18.758;2023-02-28T06:37:03;28.00;;;11.10;;
37903;SDS011;23738;50.422;18.758;2023-02-28T06:39:31;32.70;;;11.10;;
37903;SDS011;23738;50.422;18.758;2023-02-28T06:41:59;31.60;;;12.90;;
37903;SDS011;23738;50.422;18.758;2023-02-28T06:44:26;21.60;;;9.60;;
37903;SDS011;23738;50.422;18.758;2023-02-28T06:47:01;24.90;;;8.90;;
37903;SDS011;23738;50.422;18.758;2023-02-28T06:49:29;19.20;;;9.30;;
37903;SDS011;23738;50.422;18.758;2023-02-28T06:51:57;12.40;;;8.40;;
37903;SDS011;23738;50.422;18.758;2023-02-28T06:54:24;21.40;;;9.40;;
37903;SDS011;23738;50.422;18.758;2023-02-28T06:56:53;21.70;;;10.00;;
37903;SDS011;23738;50.422;18.758;2023-02-28T06:59:20;26.50;;;10.10;;
37903;SDS011;23738;50.422;18.758;2023-02-28T07:01:48;23.40;;;9.50;;
37903;SDS011;23738;50.422;18.758;2023-02-28T07:04:15;20.30;;;9.10;;
37903;SDS011;23738;50.422;18.758;2023-02-28T07:06:43;21.20;;;9.50;;
37903;SDS011;23738;50.422;18.758;2023-02-28T07:09:10;20.10;;;10.30;;
37903;SDS011;23738;50.422;18.758;2023-02-28T07:11:38;39.60;;;15.40;;
37903;SDS011;23738;50.422;18.758;2023-02-28T07:14:06;78.80;;;26.80;;
37903;SDS011;23738;50.422;18.758;2023-02-28T07:16:34;50.00;;;18.20;;
37903;SDS011;23738;50.422;18.758;2023-02-28T07:19:02;28.90;;;12.30;;
37903;SDS011;23738;50.422;18.758;2023-02-28T07:21:30;30.00;;;11.80;;
37903;SDS011;23738;50.422;18.758;2023-02-28T07:23:57;24.20;;;10.20;;
37903;SDS011;23738;50.422;18.758;2023-02-28T07:26:25;21.90;;;10.30;;
37903;SDS011;23738;50.422;18.758;2023-02-28T07:28:52;18.90;;;10.00;;
37903;SDS011;23738;50.422;18.758;2023-02-28T07:31:20;22.70;;;10.50;;
37903;SDS011;23738;50.422;18.758;2023-02-28T07:33:47;26.40;;;11.60;;
37903;SDS011;23738;50.422;18.758;2023-02-28T07:36:15;25.40;;;12.10;;
37903;SDS011;23738;50.422;18.758;2023-02-28T07:38:45;22.40;;;11.60;;
37903;SDS011;23738;50.422;18.758;2023-02-28T07:41:15;23.40;;;11.40;;
37903;SDS011;23738;50.422;18.758;2023-02-28T07:43:44;21.20;;;11.90;;
37903;SDS011;23738;50.422;18.758;2023-02-28T07:46:12;20.50;;;11.40;;
37903;SDS011;23738;50.422;18.758;2023-02-28T07:48:42;19.20;;;10.90;;
37903;SDS011;23738;50.422;18.758;2023-02-28T07:51:10;23.80;;;11.00;;
37903;SDS011;23738;50.422;18.758;2023-02-28T07:53:38;17.70;;;10.70;;
37903;SDS011;23738;50.422;18.758;2023-02-28T07:56:06;19.80;;;10.10;;
37903;SDS011;23738;50.422;18.758;2023-02-28T07:58:34;17.50;;;10.10;;
37903;SDS011;23738;50.422;18.758;2023-02-28T08:01:05;17.90;;;10.40;;
37903;SDS011;23738;50.422;18.758;2023-02-28T08:03:33;16.50;;;9.80;;
37903;SDS011;23738;50.422;18.758;2023-02-28T08:06:01;17.50;;;9.90;;
37903;SDS011;23738;50.422;18.758;2023-02-28T08:08:28;18.30;;;10.10;;
37903;SDS011;23738;50.422;18.758;2023-02-28T08:10:58;13.30;;;9.20;;
37903;SDS011;23738;50.422;18.758;2023-02-28T08:13:26;14.70;;;10.10;;
37903;SDS011;23738;50.422;18.758;2023-02-28T08:15:54;14.30;;;9.20;;
37903;SDS011;23738;50.422;18.758;2023-02-28T08:18:22;13.80;;;9.40;;
37903;SDS011;23738;50.422;18.758;2023-02-28T08:20:50;14.60;;;9.50;;
37903;SDS011;23738;50.422;18.758;2023-02-28T08:23:18;18.60;;;11.00;;
37903;SDS011;23738;50.422;18.758;2023-02-28T08:25:52;23.60;;;13.30;;
37903;SDS011;23738;50.422;18.758;2023-02-28T08:28:20;21.30;;;12.40;;
37903;SDS011;23738;50.422;18.758;2023-02-28T08:30:47;38.60;;;22.10;;
37903;SDS011;23738;50.422;18.758;2023-02-28T08:33:15;32.40;;;17.40;;
37903;SDS011;23738;50.422;18.758;2023-02-28T08:35:42;20.40;;;14.00;;
37903;SDS011;23738;50.422;18.758;2023-02-28T08:38:10;34.70;;;15.90;;
37903;SDS011;23738;50.422;18.758;2023-02-28T08:40:37;30.00;;;15.60;;
37903;SDS011;23738;50.422;18.758;2023-02-28T08:43:05;89.80;;;32.80;;
37903;SDS011;23738;50.422;18.758;2023-02-28T08:45:32;47.70;;;18.00;;
37903;SDS011;23738;50.422;18.758;2023-02-28T08:48:00;51.90;;;21.70;;
37903;SDS011;23738;50.422;18.758;2023-02-28T08:50:27;26.90;;;16.10;;
37903;SDS011;23738;50.422;18.758;2023-02-28T08:52:55;62.40;;;21.30;;
37903;SDS011;23738;50.422;18.758;2023-02-28T08:55:23;28.70;;;14.10;;
37903;SDS011;23738;50.422;18.758;2023-02-28T08:57:50;48.20;;;16.60;;
37903;SDS011;23738;50.422;18.758;2023-02-28T09:00:22;56.50;;;20.10;;
37903;SDS011;23738;50.422;18.758;2023-02-28T09:02:50;35.80;;;15.10;;
37903;SDS011;23738;50.422;18.758;2023-02-28T09:05:20;43.80;;;16.10;;
37903;SDS011;23738;50.422;18.758;2023-02-28T09:07:52;61.10;;;23.50;;
37903;SDS011;23738;50.422;18.758;2023-02-28T09:10:35;32.40;;;16.30;;
37903;SDS011;23738;50.422;18.758;2023-02-28T09:13:02;75.50;;;29.10;;
37903;SDS011;23738;50.422;18.758;2023-02-28T09:15:30;52.50;;;21.10;;
37903;SDS011;23738;50.422;18.758;2023-02-28T09:18:00;36.50;;;17.70;;
37903;SDS011;23738;50.422;18.758;2023-02-28T09:20:28;23.10;;;11.80;;
37903;SDS011;23738;50.422;18.758;2023-02-28T09:22:55;22.80;;;12.40;;
37903;SDS011;23738;50.422;18.758;2023-02-28T09:25:23;29.10;;;14.60;;
37903;SDS011;23738;50.422;18.758;2023-02-28T09:27:50;20.30;;;11.40;;
37903;SDS011;23738;50.422;18.758;2023-02-28T09:30:18;22.40;;;12.20;;
37903;SDS011;23738;50.422;18.758;2023-02-28T09:32:45;18.10;;;11.30;;
37903;SDS011;23738;50.422;18.758;2023-02-28T09:35:18;18.70;;;10.60;;
37903;SDS011;23738;50.422;18.758;2023-02-28T09:37:47;22.30;;;12.80;;
37903;SDS011;23738;50.422;18.758;2023-02-28T09:40:15;15.70;;;10.30;;
37903;SDS011;23738;50.422;18.758;2023-02-28T09:42:44;15.10;;;10.40;;
37903;SDS011;23738;50.422;18.758;2023-02-28T09:45:16;21.60;;;12.80;;
37903;SDS011;23738;50.422;18.758;2023-02-28T09:47:49;21.00;;;8.90;;
37903;SDS011;23738;50.422;18.758;2023-02-28T09:50:24;24.90;;;11.80;;
37903;SDS011;23738;50.422;18.758;2023-02-28T09:53:00;18.50;;;10.50;;
37903;SDS011;23738;50.422;18.758;2023-02-28T09:55:31;14.10;;;9.90;;
37903;SDS011;23738;50.422;18.758;2023-02-28T09:58:01;13.50;;;9.40;;
37903;SDS011;23738;50.422;18.758;2023-02-28T10:00:31;21.80;;;10.40;;
37903;SDS011;23738;50.422;18.758;2023-02-28T10:03:15;16.50;;;10.60;;
